createdAt,value
2018-09-22T00:02:01.126Z,14.90
2018-09-22T00:04:30.441Z,14.90
2018-09-22T00:06:59.060Z,14.90
2018-09-22T00:09:27.706Z,14.90
2018-09-22T00:11:57.085Z,14.90
2018-09-22T00:14:25.659Z,14.90
2018-09-22T00:16:54.503Z,14.90
2018-09-22T00:19:23.218Z,14.90
2018-09-22T00:21:51.755Z,14.90
2018-09-22T00:24:21.386Z,14.90
2018-09-22T00:26:50.331Z,14.90
2018-09-22T00:29:19.572Z,14.90
2018-09-22T00:31:48.070Z,14.90
2018-09-22T00:34:16.595Z,14.80
2018-09-22T00:36:45.109Z,14.80
2018-09-22T00:39:13.627Z,14.70
2018-09-22T00:41:42.457Z,14.70
2018-09-22T00:44:11.004Z,14.60
2018-09-22T00:46:39.816Z,14.60
2018-09-22T00:49:08.951Z,14.60
2018-09-22T00:51:37.693Z,14.50
2018-09-22T00:54:06.368Z,14.50
2018-09-22T00:56:34.972Z,14.50
2018-09-22T00:59:03.917Z,14.50
2018-09-22T01:01:33.193Z,14.50
2018-09-22T01:04:02.287Z,14.40
2018-09-22T01:06:30.980Z,14.30
2018-09-22T01:08:59.696Z,14.20
2018-09-22T01:11:29.618Z,14.20
2018-09-22T01:13:58.817Z,14.20
2018-09-22T01:16:27.475Z,14.20
2018-09-22T01:18:56.062Z,14.20
2018-09-22T01:21:25.477Z,14.20
2018-09-22T01:23:54.174Z,14.20
2018-09-22T01:26:22.710Z,14.20
2018-09-22T01:28:51.257Z,14.10
2018-09-22T01:31:19.881Z,14.20
2018-09-22T01:33:49.310Z,14.10
2018-09-22T01:36:17.862Z,14.00
2018-09-22T01:38:47.570Z,14.00
2018-09-22T01:41:16.304Z,14.00
2018-09-22T01:43:44.837Z,13.90
2018-09-22T02:56:20.077Z,13.30
2018-09-22T02:58:48.800Z,13.40
2018-09-22T03:01:17.994Z,13.30
2018-09-22T03:03:46.550Z,13.30
2018-09-22T03:06:15.208Z,13.30
2018-09-22T03:08:44.431Z,13.20
2018-09-22T03:11:13.152Z,13.20
2018-09-22T03:13:41.973Z,13.10
2018-09-22T03:16:11.646Z,13.00
2018-09-22T03:18:40.389Z,13.00
2018-09-22T03:21:09.703Z,13.00
2018-09-22T03:23:38.205Z,13.00
2018-09-22T03:26:07.469Z,13.10
2018-09-22T03:28:36.247Z,13.10
2018-09-22T03:31:04.950Z,13.10
2018-09-22T03:33:33.508Z,13.10
2018-09-22T03:36:02.592Z,13.20
2018-09-22T03:38:31.603Z,13.20
2018-09-22T03:41:00.188Z,13.20
2018-09-22T03:43:28.920Z,13.20
2018-09-22T03:45:57.540Z,13.20
2018-09-22T03:48:26.184Z,13.20
2018-09-22T03:50:54.773Z,13.10
2018-09-22T03:53:23.300Z,13.10
2018-09-22T03:55:52.042Z,13.10
2018-09-22T03:58:22.020Z,13.10
2018-09-22T04:00:50.753Z,13.10
2018-09-22T04:03:19.373Z,13.00
2018-09-22T04:05:48.005Z,13.00
2018-09-22T04:08:16.590Z,13.00
2018-09-22T04:10:45.616Z,13.00
2018-09-22T04:13:14.327Z,13.00
2018-09-22T04:15:43.187Z,12.90
2018-09-22T04:18:11.741Z,12.90
2018-09-22T04:20:40.562Z,12.90
2018-09-22T04:23:09.454Z,12.90
2018-09-22T04:25:38.170Z,12.90
2018-09-22T04:28:07.744Z,12.90
2018-09-22T04:30:37.100Z,12.90
2018-09-22T04:33:06.757Z,12.90
2018-09-22T04:35:36.074Z,12.90
2018-09-22T04:38:04.949Z,12.90
2018-09-22T04:40:33.662Z,12.90
2018-09-22T04:43:02.373Z,12.90
2018-09-22T04:45:31.687Z,13.00
2018-09-22T04:48:00.513Z,13.00
2018-09-22T04:50:29.425Z,12.90
2018-09-22T04:52:58.014Z,12.90
2018-09-22T04:55:26.672Z,13.00
2018-09-22T04:57:55.342Z,13.00
2018-09-22T05:00:25.066Z,13.00
2018-09-22T05:02:54.663Z,13.00
2018-09-22T05:05:23.210Z,13.00
2018-09-22T05:07:51.830Z,13.00
2018-09-22T05:10:20.526Z,13.00
2018-09-22T05:12:49.208Z,13.00
2018-09-22T05:15:17.978Z,13.00
2018-09-22T05:17:46.869Z,12.90
2018-09-22T05:20:15.505Z,12.90
2018-09-22T05:22:44.265Z,12.90
2018-09-22T05:25:13.530Z,12.90
2018-09-22T05:27:42.124Z,12.90
2018-09-22T05:30:10.652Z,12.80
2018-09-22T05:32:41.414Z,12.80
2018-09-22T05:35:10.784Z,12.70
2018-09-22T05:37:39.486Z,12.70
2018-09-22T05:40:08.501Z,12.80
2018-09-22T05:42:37.496Z,12.70
2018-09-22T05:45:07.289Z,12.70
2018-09-22T05:47:35.938Z,12.70
2018-09-22T05:50:06.040Z,12.80
2018-09-22T05:52:34.804Z,12.80
2018-09-22T05:55:03.638Z,12.80
2018-09-22T05:57:32.352Z,12.80
2018-09-22T06:00:00.814Z,12.90
2018-09-22T06:02:29.348Z,12.80
2018-09-22T06:04:58.287Z,12.80
2018-09-22T06:07:27.553Z,12.90
2018-09-22T06:09:56.365Z,13.00
2018-09-22T06:12:25.931Z,13.00
2018-09-22T06:14:54.465Z,13.10
2018-09-22T06:17:23.277Z,13.20
2018-09-22T06:19:52.059Z,13.30
2018-09-22T06:22:21.442Z,13.30
2018-09-22T06:24:50.219Z,13.40
2018-09-22T06:27:18.957Z,13.40
2018-09-22T06:29:47.908Z,13.50
2018-09-22T06:32:17.771Z,13.60
2018-09-22T06:34:46.602Z,13.70
2018-09-22T06:37:15.131Z,13.80
2018-09-22T06:39:44.283Z,13.80
2018-09-22T06:42:12.957Z,13.80
2018-09-22T06:44:42.494Z,13.80
2018-09-22T06:47:12.090Z,13.90
2018-09-22T06:49:40.690Z,13.90
2018-09-22T06:52:09.472Z,13.90
2018-09-22T06:54:38.097Z,14.00
2018-09-22T06:57:07.142Z,14.20
2018-09-22T06:59:35.795Z,14.30
2018-09-22T07:02:04.601Z,14.40
2018-09-22T07:04:33.211Z,14.50
2018-09-22T07:07:02.147Z,14.60
2018-09-22T07:09:31.132Z,14.70
2018-09-22T07:11:59.672Z,14.80
2018-09-22T07:14:28.424Z,14.80
2018-09-22T07:16:57.285Z,15.00
2018-09-22T07:19:25.870Z,15.10
2018-09-22T07:21:59.934Z,15.20
2018-09-22T07:24:28.513Z,15.30
2018-09-22T07:26:57.573Z,15.30
2018-09-22T07:29:26.440Z,15.30
2018-09-22T07:31:55.109Z,15.20
2018-09-22T07:34:23.964Z,15.20
2018-09-22T07:36:52.457Z,15.30
2018-09-22T07:39:21.269Z,15.30
2018-09-22T07:41:49.957Z,15.50
2018-09-22T07:44:18.544Z,15.60
2018-09-22T07:46:47.265Z,15.60
2018-09-22T07:49:16.203Z,15.60
2018-09-22T07:51:44.825Z,15.70
2018-09-22T07:54:13.377Z,15.80
2018-09-22T07:56:42.599Z,15.70
2018-09-22T07:59:11.156Z,15.90
2018-09-22T08:01:39.829Z,15.90
2018-09-22T08:04:08.749Z,16.10
2018-09-22T08:06:37.869Z,16.20
2018-09-22T08:09:07.883Z,16.10
2018-09-22T08:11:36.541Z,16.20
2018-09-22T08:14:05.890Z,16.20
2018-09-22T08:16:34.526Z,16.40
2018-09-22T08:19:03.058Z,16.40
2018-09-22T08:21:31.630Z,16.50
2018-09-22T08:24:00.141Z,16.80
2018-09-22T08:26:29.464Z,16.90
2018-09-22T08:28:58.037Z,17.00
2018-09-22T08:31:26.624Z,17.20
2018-09-22T08:33:55.315Z,17.40
2018-09-22T08:36:24.130Z,17.70
2018-09-22T08:38:52.459Z,17.60
2018-09-22T08:41:21.858Z,17.50
2018-09-22T08:43:50.985Z,17.70
2018-09-22T08:46:19.902Z,17.90
2018-09-22T08:48:49.189Z,18.10
2018-09-22T08:51:18.654Z,18.10
2018-09-22T08:53:47.424Z,18.10
2018-09-22T08:56:16.181Z,18.40
2018-09-22T08:58:44.795Z,18.60
2018-09-22T09:01:14.870Z,18.50
2018-09-22T09:03:43.443Z,18.40
2018-09-22T09:06:12.138Z,18.50
2018-09-22T09:08:40.732Z,18.60
2018-09-22T09:11:09.372Z,18.50
2018-09-22T09:13:37.956Z,18.80
2018-09-22T09:16:07.376Z,18.70
2018-09-22T09:18:36.091Z,18.70
2018-09-22T09:21:04.769Z,18.80
2018-09-22T09:23:33.455Z,18.90
2018-09-22T09:26:01.953Z,18.90
2018-09-22T09:28:30.609Z,18.90
2018-09-22T09:30:59.277Z,18.80
2018-09-22T09:33:28.394Z,19.00
2018-09-22T09:35:57.072Z,19.20
2018-09-22T09:38:25.613Z,18.80
2018-09-22T09:40:54.078Z,18.80
2018-09-22T09:43:23.348Z,18.60
2018-09-22T09:45:52.332Z,18.70
2018-09-22T09:48:20.890Z,19.00
2018-09-22T09:50:50.469Z,19.10
2018-09-22T09:53:19.624Z,19.30
2018-09-22T09:55:48.240Z,19.50
2018-09-22T09:58:16.930Z,19.60
2018-09-22T10:00:46.630Z,19.50
2018-09-22T10:03:17.257Z,19.40
2018-09-22T10:05:46.272Z,19.50
2018-09-22T10:08:15.427Z,19.40
2018-09-22T10:10:45.367Z,19.50
2018-09-22T10:13:14.112Z,19.40
2018-09-22T10:15:43.345Z,19.20
2018-09-22T10:18:12.090Z,19.20
2018-09-22T10:20:41.046Z,19.30
2018-09-22T10:23:09.774Z,19.40
2018-09-22T10:25:38.405Z,19.70
2018-09-22T10:28:07.079Z,19.70
2018-09-22T10:30:35.548Z,19.80
2018-09-22T10:33:04.426Z,19.80
2018-09-22T10:35:33.037Z,19.70
2018-09-22T10:38:01.991Z,19.90
2018-09-22T10:40:31.179Z,20.00
2018-09-22T10:42:59.708Z,20.00
2018-09-22T10:45:28.675Z,19.70
2018-09-22T10:47:57.350Z,19.60
2018-09-22T10:50:26.284Z,19.60
2018-09-22T10:52:58.423Z,19.60
2018-09-22T10:55:26.979Z,19.60
2018-09-22T10:57:55.720Z,19.60
2018-09-22T11:00:24.928Z,19.70
2018-09-22T11:02:53.960Z,19.70
2018-09-22T11:05:22.758Z,20.20
2018-09-22T11:07:51.730Z,20.20
2018-09-22T11:10:20.354Z,19.70
2018-09-22T11:12:49.262Z,19.70
2018-09-22T11:15:17.730Z,20.00
2018-09-22T11:17:46.608Z,20.20
2018-09-22T11:20:15.195Z,20.50
2018-09-22T11:22:43.880Z,20.60
2018-09-22T11:25:12.758Z,20.70
2018-09-22T11:27:41.550Z,21.00
2018-09-22T11:30:10.277Z,21.40
2018-09-22T11:32:38.932Z,21.80
2018-09-22T11:35:08.083Z,21.60
2018-09-22T11:37:36.778Z,21.20
2018-09-22T11:40:06.013Z,21.00
2018-09-22T11:42:34.617Z,20.80
2018-09-22T11:45:03.459Z,20.90
2018-09-22T11:47:32.814Z,21.20
2018-09-22T11:50:01.379Z,21.20
2018-09-22T11:52:29.967Z,21.00
2018-09-22T11:54:58.636Z,20.70
2018-09-22T11:57:28.123Z,21.30
2018-09-22T11:59:57.370Z,21.20
2018-09-22T12:02:26.201Z,20.80
2018-09-22T12:04:54.949Z,20.80
2018-09-22T12:07:23.546Z,21.10
2018-09-22T12:09:52.100Z,20.80
2018-09-22T12:12:20.634Z,21.00
2018-09-22T12:14:49.161Z,21.40
2018-09-22T12:17:18.518Z,21.60
2018-09-22T12:19:47.691Z,21.40
2018-09-22T12:22:16.645Z,21.40
2018-09-22T12:24:45.877Z,20.70
2018-09-22T12:27:14.422Z,19.60
2018-09-22T12:29:42.909Z,19.40
2018-09-22T12:32:11.414Z,19.40
2018-09-22T12:34:40.085Z,19.20
2018-09-22T12:37:08.961Z,19.40
2018-09-22T12:39:38.657Z,19.10
2018-09-22T12:42:07.273Z,18.80
2018-09-22T12:44:35.823Z,18.70
2018-09-22T12:47:06.178Z,19.00
2018-09-22T12:49:34.823Z,19.00
2018-09-22T12:52:03.929Z,18.90
2018-09-22T12:54:32.415Z,19.10
2018-09-22T12:57:01.414Z,19.20
2018-09-22T12:59:29.938Z,19.70
2018-09-22T13:01:58.624Z,19.60
2018-09-22T13:04:27.114Z,19.80
2018-09-22T13:06:55.755Z,19.70
2018-09-22T13:09:24.233Z,20.30
2018-09-22T13:11:52.745Z,20.10
2018-09-22T13:14:21.970Z,20.20
2018-09-22T13:16:50.922Z,20.60
2018-09-22T13:19:19.530Z,21.00
2018-09-22T13:21:48.723Z,21.00
2018-09-22T13:24:17.847Z,21.10
2018-09-22T13:26:46.923Z,21.00
2018-09-22T13:29:15.398Z,21.20
2018-09-22T13:31:44.015Z,21.00
2018-09-22T13:34:12.499Z,20.90
2018-09-22T13:36:40.987Z,20.80
2018-09-22T13:39:10.991Z,20.90
2018-09-22T13:41:40.324Z,20.70
2018-09-22T13:44:09.301Z,21.30
2018-09-22T13:46:38.159Z,21.50
2018-09-22T13:49:06.993Z,21.40
2018-09-22T13:51:35.566Z,21.20
2018-09-22T13:54:04.469Z,21.00
2018-09-22T13:56:33.113Z,20.90
2018-09-22T13:59:01.632Z,20.90
2018-09-22T14:01:31.259Z,20.80
2018-09-22T14:03:59.835Z,20.90
2018-09-22T14:06:28.760Z,21.00
2018-09-22T14:08:57.230Z,21.10
2018-09-22T14:11:25.805Z,21.40
2018-09-22T14:13:54.320Z,21.30
2018-09-22T14:16:22.888Z,21.20
2018-09-22T14:18:51.412Z,21.20
2018-09-22T14:21:19.958Z,21.00
2018-09-22T14:23:49.401Z,21.10
2018-09-22T14:26:19.341Z,21.30
2018-09-22T14:28:48.069Z,21.20
2018-09-22T14:31:17.329Z,21.20
2018-09-22T14:33:45.896Z,21.00
2018-09-22T14:36:14.651Z,20.90
2018-09-22T14:38:43.241Z,20.90
2018-09-22T14:41:11.880Z,20.80
2018-09-22T14:43:41.294Z,20.80
2018-09-22T14:46:09.899Z,20.70
2018-09-22T14:48:38.451Z,20.70
2018-09-22T14:51:07.071Z,20.70
2018-09-22T14:53:35.573Z,20.70
2018-09-22T14:56:04.216Z,20.60
2018-09-22T14:58:32.725Z,20.70
2018-09-22T15:01:01.362Z,20.70
2018-09-22T15:03:29.898Z,20.70
2018-09-22T15:05:58.548Z,20.40
2018-09-22T15:08:27.241Z,20.20
2018-09-22T15:10:56.593Z,20.20
2018-09-22T15:13:25.179Z,20.20
2018-09-22T15:15:53.857Z,20.00
2018-09-22T15:18:22.392Z,20.00
2018-09-22T15:20:51.594Z,20.00
2018-09-22T15:23:20.262Z,20.10
2018-09-22T15:25:48.932Z,20.00
2018-09-22T15:28:17.624Z,20.00
2018-09-22T15:30:46.162Z,20.00
2018-09-22T15:33:14.840Z,19.90
2018-09-22T15:35:43.617Z,19.80
2018-09-22T15:38:12.862Z,19.50
2018-09-22T15:40:42.329Z,19.40
2018-09-22T15:43:11.026Z,19.20
2018-09-22T15:45:40.455Z,19.20
2018-09-22T15:48:09.144Z,19.20
2018-09-22T15:50:37.692Z,19.00
2018-09-22T15:53:06.824Z,18.70
2018-09-22T15:55:35.589Z,18.60
2018-09-22T15:58:04.121Z,18.50
2018-09-22T16:00:33.458Z,18.70
2018-09-22T16:03:02.109Z,18.70
2018-09-22T16:05:30.930Z,18.60
2018-09-22T16:07:59.466Z,18.50
2018-09-22T16:10:34.542Z,18.40
2018-09-22T16:13:03.405Z,18.40
2018-09-22T16:15:32.235Z,18.40
2018-09-22T16:18:01.087Z,18.30
2018-09-22T16:20:29.552Z,18.40
2018-09-22T16:22:58.258Z,18.50
2018-09-22T16:25:26.801Z,18.30
2018-09-22T16:27:55.613Z,18.20
2018-09-22T16:30:25.019Z,18.30
2018-09-22T16:32:54.469Z,18.20
2018-09-22T16:35:23.638Z,18.30
2018-09-22T16:37:52.495Z,18.20
2018-09-22T16:40:21.219Z,18.30
2018-09-22T16:42:50.653Z,18.10
2018-09-22T16:45:19.355Z,18.10
2018-09-22T16:47:48.659Z,18.00
2018-09-22T16:50:17.227Z,18.10
2018-09-22T16:52:46.062Z,17.90
2018-09-22T16:55:14.671Z,17.90
2018-09-22T16:57:43.390Z,17.90
2018-09-22T17:00:12.491Z,18.00
2018-09-22T17:02:41.197Z,17.90
2018-09-22T17:05:09.811Z,17.60
2018-09-22T17:07:38.693Z,17.40
2018-09-22T17:10:08.108Z,17.40
2018-09-22T17:12:37.444Z,17.40
2018-09-22T17:15:06.046Z,17.50
2018-09-22T17:17:35.478Z,17.40
2018-09-22T17:20:04.725Z,17.30
2018-09-22T17:22:33.333Z,17.20
2018-09-22T17:25:02.012Z,17.30
2018-09-22T17:27:31.665Z,17.30
2018-09-22T17:30:00.416Z,17.10
2018-09-22T17:32:35.970Z,17.20
2018-09-22T17:35:04.722Z,17.10
2018-09-22T17:37:33.285Z,17.10
2018-09-22T17:40:02.162Z,17.10
2018-09-22T17:42:30.989Z,17.10
2018-09-22T17:44:59.576Z,17.20
2018-09-22T17:47:28.361Z,17.20
2018-09-22T17:49:56.969Z,17.20
2018-09-22T17:52:25.919Z,17.10
2018-09-22T17:54:54.856Z,17.10
2018-09-22T17:57:24.862Z,17.20
2018-09-22T17:59:53.810Z,17.20
2018-09-22T18:02:22.247Z,17.20
2018-09-22T18:04:51.157Z,17.20
2018-09-22T18:07:19.952Z,17.20
2018-09-22T18:09:48.940Z,17.10
2018-09-22T18:12:17.628Z,16.90
2018-09-22T18:14:46.447Z,16.90
2018-09-22T18:17:16.047Z,16.70
2018-09-22T18:19:44.562Z,16.80
2018-09-22T18:22:13.334Z,16.90
2018-09-22T18:24:42.343Z,16.80
2018-09-22T18:27:11.026Z,16.80
2018-09-22T18:29:39.662Z,16.70
2018-09-22T18:32:08.551Z,16.80
2018-09-22T18:34:37.955Z,16.70
2018-09-22T18:37:07.349Z,16.60
2018-09-22T18:39:36.028Z,16.60
2018-09-22T18:42:05.669Z,16.60
2018-09-22T18:44:34.250Z,16.70
2018-09-22T18:47:03.797Z,16.80
2018-09-22T18:49:32.392Z,16.80
2018-09-22T18:52:01.621Z,16.80
2018-09-22T18:54:30.333Z,16.70
2018-09-22T18:56:58.997Z,16.60
2018-09-22T18:59:27.644Z,16.60
2018-09-22T19:01:56.229Z,16.70
2018-09-22T19:04:24.912Z,16.70
2018-09-22T19:06:53.368Z,16.60
2018-09-22T19:09:21.817Z,16.40
2018-09-22T19:11:51.008Z,16.40
2018-09-22T19:14:24.420Z,16.40
2018-09-22T19:17:04.109Z,16.50
2018-09-22T19:19:46.747Z,16.50
2018-09-22T19:22:19.412Z,16.50
2018-09-22T19:24:50.942Z,16.50
2018-09-22T19:27:23.114Z,16.50
2018-09-22T19:29:58.467Z,16.50
2018-09-22T19:32:31.056Z,16.50
2018-09-22T19:35:03.530Z,16.50
2018-09-22T19:37:36.402Z,16.50
2018-09-22T19:40:13.321Z,16.50
2018-09-22T19:42:53.159Z,16.50
2018-09-22T19:45:32.316Z,16.40
2018-09-22T19:48:05.465Z,16.20
2018-09-22T19:50:44.899Z,16.20
2018-09-22T19:53:14.113Z,16.20
2018-09-22T19:55:42.716Z,16.10
2018-09-22T19:58:11.526Z,16.10
2018-09-22T20:00:40.653Z,16.20
2018-09-22T20:03:09.788Z,16.20
2018-09-22T20:05:38.473Z,16.20
2018-09-22T20:08:07.222Z,16.20
2018-09-22T20:10:35.870Z,16.10
2018-09-22T20:13:05.094Z,16.10
2018-09-22T20:15:33.720Z,16.00
2018-09-22T20:18:02.196Z,15.90
2018-09-22T20:20:31.087Z,15.90
2018-09-22T20:23:00.684Z,15.90
2018-09-22T20:25:29.390Z,15.90
2018-09-22T20:27:57.990Z,15.80
2018-09-22T20:30:27.008Z,15.90
2018-09-22T20:32:55.851Z,16.00
2018-09-22T20:35:24.748Z,16.00
2018-09-22T20:37:53.673Z,16.10
2018-09-22T20:40:22.404Z,16.10
2018-09-22T20:42:51.458Z,16.10
2018-09-22T20:45:21.141Z,15.90
2018-09-22T20:47:49.721Z,15.60
2018-09-22T20:50:19.128Z,15.60
2018-09-22T20:52:47.635Z,15.50
2018-09-22T20:55:16.173Z,15.70
2018-09-22T20:57:45.080Z,15.60
2018-09-22T21:00:13.749Z,15.50
2018-09-22T21:02:42.573Z,15.60
2018-09-22T21:05:11.398Z,15.60
2018-09-22T21:07:40.257Z,15.70
2018-09-22T21:10:09.461Z,15.80
2018-09-22T21:12:38.205Z,15.80
2018-09-22T21:15:06.902Z,15.90
2018-09-22T21:17:35.475Z,15.80
2018-09-22T21:20:04.337Z,15.90
2018-09-22T21:22:33.069Z,15.80
2018-09-22T21:25:01.752Z,15.70
2018-09-22T21:27:30.266Z,15.70
2018-09-22T21:29:58.910Z,15.80
2018-09-22T21:32:27.707Z,15.80
2018-09-22T21:34:57.190Z,15.90
2018-09-22T21:37:26.645Z,15.90
2018-09-22T21:39:55.294Z,15.90
2018-09-22T21:42:23.846Z,15.90
2018-09-22T21:44:52.583Z,15.80
2018-09-22T21:47:21.376Z,15.90
2018-09-22T21:49:50.754Z,15.90
2018-09-22T21:52:19.467Z,15.90
2018-09-22T21:54:48.743Z,15.80
2018-09-22T21:57:18.178Z,15.80
2018-09-22T21:59:46.828Z,15.80
2018-09-22T22:02:15.832Z,15.80
2018-09-22T22:04:44.396Z,15.70
2018-09-22T22:07:13.517Z,15.70
2018-09-22T22:09:42.845Z,15.70
2018-09-22T22:12:11.542Z,15.70
2018-09-22T22:14:40.177Z,15.70
2018-09-22T22:17:09.575Z,15.70
2018-09-22T22:19:38.145Z,15.60
2018-09-22T22:22:07.861Z,15.60
2018-09-22T22:24:37.046Z,15.70
2018-09-22T22:27:06.481Z,15.60
2018-09-22T22:29:35.251Z,15.60
2018-09-22T22:32:03.773Z,15.50
2018-09-22T22:34:32.974Z,15.50
2018-09-22T22:37:02.356Z,15.40
2018-09-22T22:39:30.922Z,15.30
2018-09-22T22:41:59.706Z,15.40
2018-09-22T22:44:28.326Z,15.40
2018-09-22T22:46:57.017Z,15.40
2018-09-22T22:49:25.682Z,15.40
2018-09-22T22:51:55.273Z,15.40
2018-09-22T22:54:23.961Z,15.40
2018-09-22T22:56:52.646Z,15.30
2018-09-22T22:59:21.397Z,15.30
2018-09-22T23:01:51.191Z,15.20
2018-09-22T23:04:19.757Z,15.20
2018-09-22T23:06:50.129Z,15.20
2018-09-22T23:09:19.553Z,15.20
2018-09-22T23:11:48.040Z,15.10
2018-09-22T23:14:16.636Z,15.00
2018-09-22T23:16:45.811Z,15.10
2018-09-22T23:19:14.699Z,15.00
2018-09-22T23:21:43.397Z,15.00
2018-09-22T23:24:12.486Z,15.00
2018-09-22T23:26:41.173Z,15.00
2018-09-22T23:29:10.068Z,14.90
2018-09-22T23:31:39.441Z,14.90
2018-09-22T23:34:08.909Z,14.90
2018-09-22T23:36:38.691Z,14.90
2018-09-22T23:39:09.271Z,14.90
2018-09-22T23:41:37.839Z,15.00
2018-09-22T23:44:06.596Z,15.00
2018-09-22T23:46:35.435Z,15.10
2018-09-22T23:49:04.385Z,15.10
2018-09-22T23:51:33.048Z,15.10
2018-09-22T23:54:01.954Z,15.10
2018-09-22T23:56:30.928Z,15.10
2018-09-22T23:58:59.597Z,15.10
